Time;durP1;ratioP1;P1;durP2;ratioP2;P2;SDS_P1;SDS_P2;PMS_P1;PMS_P2;Temp;Humidity;BMP_temperature;BMP_pressure;BME280_temperature;BME280_humidity;BME280_pressure;Samples;Min_cycle;Max_cycle;Signal;HPM_P1;HPM_P2
2024/01/02 00:02:10;;;;;;;12.40;8.80;;;;;;;;;;81041;275;3030485;-34
2024/01/02 00:04:49;;;;;;;11.90;8.70;;;;;;;;;;81059;275;3032690;-32
2024/01/02 00:07:31;;;;;;;11.70;8.70;;;;;;;;;;81046;275;3028456;-33
2024/01/02 00:10:11;;;;;;;12.40;9.20;;;;;;;;;;81302;275;3027622;-33
2024/01/02 00:12:47;;;;;;;13.40;9.20;;;;;;;;;;81418;275;3031070;-33
2024/01/02 00:15:25;;;;;;;13.50;9.10;;;;;;;;;;81078;271;3031447;-32
2024/01/02 00:18:05;;;;;;;12.00;8.80;;;;;;;;;;81052;275;3028605;-33
2024/01/02 00:20:43;;;;;;;12.20;8.80;;;;;;;;;;81068;271;3028031;-32
2024/01/02 00:23:20;;;;;;;13.20;9.10;;;;;;;;;;81050;275;3030456;-32
2024/01/02 00:25:57;;;;;;;13.20;8.70;;;;;;;;;;81094;271;3032128;-32
2024/01/02 00:28:35;;;;;;;12.90;8.50;;;;;;;;;;81292;283;3027857;-32
2024/01/02 00:31:12;;;;;;;11.50;8.50;;;;;;;;;;81030;275;3028091;-32
2024/01/02 00:33:51;;;;;;;11.50;8.50;;;;;;;;;;81056;275;3030529;-32
2024/01/02 00:36:30;;;;;;;13.70;9.30;;;;;;;;;;81115;270;3032642;-32
2024/01/02 00:39:08;;;;;;;11.70;8.50;;;;;;;;;;81041;275;3028691;-32
2024/01/02 00:41:49;;;;;;;11.10;8.20;;;;;;;;;;82297;279;3027415;-33
2024/01/02 00:44:32;;;;;;;12.50;8.40;;;;;;;;;;81051;283;3031062;-32
2024/01/02 00:47:12;;;;;;;11.70;8.50;;;;;;;;;;81069;279;3031406;-32
2024/01/02 00:49:50;;;;;;;11.30;8.10;;;;;;;;;;81073;275;3028182;-32
2024/01/02 00:52:28;;;;;;;11.80;8.20;;;;;;;;;;81037;283;3027585;-32
2024/01/02 00:55:09;;;;;;;11.60;8.30;;;;;;;;;;81073;278;3031894;-32
2024/01/02 00:57:46;;;;;;;11.30;8.10;;;;;;;;;;81653;275;3031971;-32
2024/01/02 01:00:25;;;;;;;12.10;8.40;;;;;;;;;;81068;271;3028329;-32
2024/01/02 01:03:04;;;;;;;11.70;8.00;;;;;;;;;;82167;270;3027232;-32
2024/01/02 01:05:42;;;;;;;10.80;8.00;;;;;;;;;;81081;283;3030914;-32
2024/01/02 01:08:19;;;;;;;11.20;7.90;;;;;;;;;;81056;283;3032157;-32
2024/01/02 01:10:58;;;;;;;11.70;8.00;;;;;;;;;;81090;279;3028212;-32
2024/01/02 01:13:37;;;;;;;10.60;8.20;;;;;;;;;;81066;275;3028066;-32
2024/01/02 01:16:16;;;;;;;11.30;8.30;;;;;;;;;;81051;275;3031377;-32
2024/01/02 01:18:55;;;;;;;10.70;7.70;;;;;;;;;;81092;283;3031930;-32
2024/01/02 01:21:33;;;;;;;11.40;7.70;;;;;;;;;;81061;282;3028800;-32
2024/01/02 01:24:16;;;;;;;10.80;7.80;;;;;;;;;;81049;276;3027999;-32
2024/01/02 01:26:54;;;;;;;11.10;7.70;;;;;;;;;;81052;283;3029513;-32
2024/01/02 01:29:33;;;;;;;10.90;8.40;;;;;;;;;;81039;283;3031473;-32
2024/01/02 01:32:10;;;;;;;11.60;8.10;;;;;;;;;;81067;271;3027915;-32
2024/01/02 01:34:48;;;;;;;9.80;7.30;;;;;;;;;;81996;270;3033583;-32
2024/01/02 01:37:25;;;;;;;10.80;8.00;;;;;;;;;;80123;283;3031152;-32
2024/01/02 01:40:03;;;;;;;10.50;7.90;;;;;;;;;;81036;283;3031849;-33
2024/01/02 01:42:48;;;;;;;10.10;7.20;;;;;;;;;;81071;275;3028509;-33
2024/01/02 01:45:27;;;;;;;10.80;7.20;;;;;;;;;;81084;275;3027778;-33
2024/01/02 01:48:08;;;;;;;9.30;7.00;;;;;;;;;;81105;283;3031135;-33
2024/01/02 01:50:44;;;;;;;9.50;7.20;;;;;;;;;;82435;270;3031653;-34
2024/01/02 01:53:21;;;;;;;11.10;7.40;;;;;;;;;;82431;278;3027828;-34
2024/01/02 01:56:00;;;;;;;9.30;7.00;;;;;;;;;;82330;282;3028066;-34
2024/01/02 01:58:36;;;;;;;10.70;7.20;;;;;;;;;;82373;270;3030977;-34
2024/01/02 02:01:17;;;;;;;9.70;7.20;;;;;;;;;;81290;283;3032002;-34
2024/01/02 02:03:54;;;;;;;10.10;7.30;;;;;;;;;;81000;283;3028157;-34
2024/01/02 02:06:31;;;;;;;9.90;7.10;;;;;;;;;;82484;278;3027719;-34
2024/01/02 02:09:07;;;;;;;10.40;7.60;;;;;;;;;;81886;283;3030820;-34
2024/01/02 02:11:48;;;;;;;10.00;7.30;;;;;;;;;;81056;279;3031805;-34
2024/01/02 02:14:29;;;;;;;9.90;7.00;;;;;;;;;;81050;279;3028082;-33
2024/01/02 02:17:10;;;;;;;10.20;7.20;;;;;;;;;;81085;279;3027776;-34
2024/01/02 02:19:50;;;;;;;9.90;7.10;;;;;;;;;;81043;271;3030913;-34
2024/01/02 02:22:36;;;;;;;9.40;6.80;;;;;;;;;;81064;275;3033727;-34
2024/01/02 02:25:17;;;;;;;9.70;7.00;;;;;;;;;;81047;275;3028117;-34
2024/01/02 02:27:56;;;;;;;9.70;7.10;;;;;;;;;;81043;268;3027852;-34
2024/01/02 02:30:38;;;;;;;10.10;6.90;;;;;;;;;;81077;275;3030883;-34
2024/01/02 02:33:17;;;;;;;10.30;7.10;;;;;;;;;;81049;271;3031336;-34
2024/01/02 02:35:56;;;;;;;9.70;6.90;;;;;;;;;;81056;279;3028667;-34
2024/01/02 02:38:36;;;;;;;9.10;6.90;;;;;;;;;;81101;283;3027789;-34
2024/01/02 02:41:17;;;;;;;9.60;6.40;;;;;;;;;;81074;275;3031023;-34
2024/01/02 02:43:58;;;;;;;8.60;6.30;;;;;;;;;;81045;275;3032116;-34
2024/01/02 02:46:36;;;;;;;9.60;6.60;;;;;;;;;;81050;275;3034231;-34
2024/01/02 02:49:16;;;;;;;9.00;6.80;;;;;;;;;;81082;275;3027815;-34
2024/01/02 02:51:57;;;;;;;9.20;6.50;;;;;;;;;;81092;275;3030422;-34
2024/01/02 02:54:36;;;;;;;9.00;6.40;;;;;;;;;;81016;275;3031878;-34
2024/01/02 02:57:15;;;;;;;9.20;6.70;;;;;;;;;;81053;275;3028349;-33
2024/01/02 02:59:53;;;;;;;9.90;6.80;;;;;;;;;;81062;275;3027675;-33
2024/01/02 03:02:33;;;;;;;9.10;6.30;;;;;;;;;;81119;270;3030728;-33
2024/01/02 03:05:11;;;;;;;9.70;6.50;;;;;;;;;;82350;283;3031860;-34
2024/01/02 03:07:47;;;;;;;8.50;6.20;;;;;;;;;;82367;282;3028761;-34
2024/01/02 03:10:26;;;;;;;9.20;6.00;;;;;;;;;;81532;275;3026994;-34
2024/01/02 03:13:06;;;;;;;9.80;6.40;;;;;;;;;;81105;283;3031374;-34
2024/01/02 03:15:44;;;;;;;9.60;6.50;;;;;;;;;;81047;275;3031618;-34
2024/01/02 03:18:21;;;;;;;9.70;6.60;;;;;;;;;;81059;271;3028062;-34
2024/01/02 03:21:01;;;;;;;10.30;6.10;;;;;;;;;;81074;271;3027754;-34
2024/01/02 03:23:41;;;;;;;9.60;6.00;;;;;;;;;;81060;267;3030729;-34
2024/01/02 03:26:21;;;;;;;9.50;6.20;;;;;;;;;;81047;275;3031612;-34
2024/01/02 03:28:59;;;;;;;9.60;6.20;;;;;;;;;;81087;275;3028917;-34
2024/01/02 03:31:37;;;;;;;9.30;6.10;;;;;;;;;;81087;270;3028492;-33
2024/01/02 03:34:13;;;;;;;9.20;5.90;;;;;;;;;;81075;275;3030940;-33
2024/01/02 03:36:50;;;;;;;9.00;5.90;;;;;;;;;;82498;270;3031822;-33
2024/01/02 03:39:26;;;;;;;8.00;5.60;;;;;;;;;;82423;278;3028479;-34
2024/01/02 03:42:03;;;;;;;8.20;5.70;;;;;;;;;;82376;283;3027258;-34
2024/01/02 03:44:38;;;;;;;8.80;6.10;;;;;;;;;;82336;282;3030591;-34
2024/01/02 03:47:15;;;;;;;8.20;6.00;;;;;;;;;;81527;275;3032515;-33
2024/01/02 03:49:51;;;;;;;7.80;5.50;;;;;;;;;;82440;270;3027914;-33
2024/01/02 03:52:26;;;;;;;8.70;5.50;;;;;;;;;;82389;282;3027443;-33
2024/01/02 03:55:04;;;;;;;8.90;6.10;;;;;;;;;;81830;283;3030775;-33
2024/01/02 03:57:39;;;;;;;7.40;5.40;;;;;;;;;;82465;279;3031865;-33
2024/01/02 04:00:17;;;;;;;10.50;5.80;;;;;;;;;;82404;279;3028152;-33
2024/01/02 04:02:54;;;;;;;8.10;5.90;;;;;;;;;;81511;283;3027746;-33
2024/01/02 04:05:55;;;;;;;9.40;5.70;;;;;;;;;;81028;275;3031335;-33
2024/01/02 04:08:33;;;;;;;8.90;5.50;;;;;;;;;;81068;270;3031211;-33
2024/01/02 04:11:13;;;;;;;8.20;5.80;;;;;;;;;;81053;271;3028191;-33
2024/01/02 04:13:51;;;;;;;8.80;5.80;;;;;;;;;;81049;282;3027845;-33
2024/01/02 04:16:29;;;;;;;8.50;5.30;;;;;;;;;;81054;283;3031311;-33
2024/01/02 04:19:07;;;;;;;9.10;5.50;;;;;;;;;;81056;275;3032614;-33
2024/01/02 04:21:43;;;;;;;8.20;5.40;;;;;;;;;;82440;278;3028884;-33
2024/01/02 04:24:19;;;;;;;8.80;5.60;;;;;;;;;;82510;270;3027146;-33
2024/01/02 04:26:54;;;;;;;7.80;5.50;;;;;;;;;;82431;278;3031279;-33
2024/01/02 04:29:30;;;;;;;10.50;5.20;;;;;;;;;;82386;278;3031588;-33
2024/01/02 04:32:07;;;;;;;8.10;5.30;;;;;;;;;;82474;270;3028083;-33
2024/01/02 04:34:43;;;;;;;8.70;5.70;;;;;;;;;;82439;270;3027585;-33
2024/01/02 04:37:21;;;;;;;8.90;5.50;;;;;;;;;;82202;279;3031309;-33
2024/01/02 04:39:58;;;;;;;8.60;5.20;;;;;;;;;;81052;275;3031564;-33
2024/01/02 04:42:35;;;;;;;8.80;5.50;;;;;;;;;;82471;279;3028167;-33
2024/01/02 04:45:12;;;;;;;8.80;4.70;;;;;;;;;;81541;275;3027115;-33
2024/01/02 04:47:50;;;;;;;7.40;5.00;;;;;;;;;;81023;271;3030937;-33
2024/01/02 04:50:28;;;;;;;7.80;5.00;;;;;;;;;;81053;275;3033004;-33
2024/01/02 04:53:04;;;;;;;8.10;5.10;;;;;;;;;;81068;275;3028139;-33
2024/01/02 04:55:40;;;;;;;10.10;5.30;;;;;;;;;;81098;283;3027099;-33
2024/01/02 04:58:20;;;;;;;8.00;5.30;;;;;;;;;;81071;283;3030757;-33
2024/01/02 05:00:59;;;;;;;7.80;4.60;;;;;;;;;;81079;275;3031728;-33
2024/01/02 05:03:38;;;;;;;7.30;5.20;;;;;;;;;;81076;275;3028431;-33
2024/01/02 05:06:16;;;;;;;7.40;4.70;;;;;;;;;;81081;283;3027991;-33
2024/01/02 05:08:56;;;;;;;7.60;5.00;;;;;;;;;;81605;279;3030475;-33
2024/01/02 05:11:37;;;;;;;7.70;4.70;;;;;;;;;;81095;271;3031435;-33
2024/01/02 05:14:16;;;;;;;8.00;4.90;;;;;;;;;;82103;275;3027922;-33
2024/01/02 05:16:56;;;;;;;7.30;4.70;;;;;;;;;;81063;279;3027362;-33
2024/01/02 05:19:35;;;;;;;8.70;4.80;;;;;;;;;;81056;275;3037050;-33
2024/01/02 05:22:12;;;;;;;8.20;4.60;;;;;;;;;;81063;282;3031299;-33
2024/01/02 05:24:51;;;;;;;7.10;4.40;;;;;;;;;;81096;270;3028557;-33
2024/01/02 05:27:29;;;;;;;8.50;4.40;;;;;;;;;;81042;282;3027943;-33
2024/01/02 05:30:08;;;;;;;7.90;4.80;;;;;;;;;;81111;279;3037025;-33
2024/01/02 05:32:47;;;;;;;8.00;4.60;;;;;;;;;;82496;278;3031381;-33
2024/01/02 05:35:23;;;;;;;7.40;4.40;;;;;;;;;;81323;267;3028150;-33
2024/01/02 05:38:03;;;;;;;8.20;4.20;;;;;;;;;;81070;275;3027759;-33
2024/01/02 05:40:40;;;;;;;7.40;4.60;;;;;;;;;;82440;282;3030836;-33
2024/01/02 05:43:16;;;;;;;6.70;4.50;;;;;;;;;;81427;275;3031778;-33
2024/01/02 05:45:51;;;;;;;7.50;4.60;;;;;;;;;;81100;275;3028322;-33
2024/01/02 05:48:31;;;;;;;8.10;4.40;;;;;;;;;;80994;283;3027889;-33
2024/01/02 05:51:11;;;;;;;7.30;4.40;;;;;;;;;;81058;283;3030909;-33
2024/01/02 05:53:47;;;;;;;7.50;4.30;;;;;;;;;;81086;275;3031994;-33
2024/01/02 05:56:24;;;;;;;7.20;4.30;;;;;;;;;;81044;275;3028221;-33
2024/01/02 05:59:03;;;;;;;7.00;4.40;;;;;;;;;;81036;275;3028024;-33
2024/01/02 06:01:39;;;;;;;7.40;4.30;;;;;;;;;;81053;275;3032286;-33
2024/01/02 06:04:17;;;;;;;6.70;4.20;;;;;;;;;;81102;275;3031802;-32
2024/01/02 06:06:55;;;;;;;7.10;4.10;;;;;;;;;;81083;275;3028429;-32
2024/01/02 06:09:34;;;;;;;7.30;4.20;;;;;;;;;;81068;275;3028001;-32
2024/01/02 06:12:10;;;;;;;7.30;4.00;;;;;;;;;;82383;270;3030323;-32
2024/01/02 06:14:46;;;;;;;6.80;4.20;;;;;;;;;;82407;278;3032360;-32
2024/01/02 06:17:22;;;;;;;6.80;4.20;;;;;;;;;;81983;275;3028108;-32
2024/01/02 06:20:04;;;;;;;6.80;4.10;;;;;;;;;;81031;270;3027814;-31
2024/01/02 06:22:42;;;;;;;6.40;4.20;;;;;;;;;;81074;275;3030897;-32
2024/01/02 06:25:18;;;;;;;6.60;4.10;;;;;;;;;;81068;283;3031471;-31
2024/01/02 06:27:55;;;;;;;6.60;4.10;;;;;;;;;;81942;275;3028415;-32
2024/01/02 06:30:31;;;;;;;7.00;3.90;;;;;;;;;;82182;275;3027498;-32
2024/01/02 06:33:12;;;;;;;7.90;4.60;;;;;;;;;;81072;275;3031118;-31
2024/01/02 06:35:52;;;;;;;6.50;3.70;;;;;;;;;;81082;270;3032110;-31
2024/01/02 06:38:32;;;;;;;6.10;4.00;;;;;;;;;;81066;271;3029296;-32
2024/01/02 06:41:14;;;;;;;6.40;4.40;;;;;;;;;;81045;267;3027560;-32
2024/01/02 06:43:51;;;;;;;6.30;4.20;;;;;;;;;;81333;283;3030637;-32
2024/01/02 06:46:27;;;;;;;6.90;4.30;;;;;;;;;;81044;275;3031964;-32
2024/01/02 06:49:05;;;;;;;7.60;4.50;;;;;;;;;;81095;283;3028351;-32
2024/01/02 06:51:41;;;;;;;7.40;4.00;;;;;;;;;;80997;276;3035598;-32
2024/01/02 06:54:18;;;;;;;6.90;4.30;;;;;;;;;;81067;275;3031341;-32
2024/01/02 06:56:54;;;;;;;7.00;4.10;;;;;;;;;;82375;275;3032577;-32
2024/01/02 06:59:30;;;;;;;6.70;3.90;;;;;;;;;;81172;278;3028846;-32
2024/01/02 07:02:07;;;;;;;7.40;4.10;;;;;;;;;;82303;275;3027329;-32
2024/01/02 07:04:43;;;;;;;6.40;4.10;;;;;;;;;;81926;275;3031053;-32
2024/01/02 07:07:20;;;;;;;6.10;3.70;;;;;;;;;;81066;271;3032639;-33
2024/01/02 07:09:57;;;;;;;6.60;4.20;;;;;;;;;;81041;283;3028229;-32
2024/01/02 07:12:36;;;;;;;6.20;4.10;;;;;;;;;;81062;271;3027754;-32
2024/01/02 07:15:18;;;;;;;7.00;4.00;;;;;;;;;;81045;275;3030966;-31
2024/01/02 07:17:54;;;;;;;5.80;3.90;;;;;;;;;;81041;270;3031725;-31
2024/01/02 07:20:33;;;;;;;7.10;4.10;;;;;;;;;;81038;275;3028282;-32
2024/01/02 07:23:10;;;;;;;6.30;4.00;;;;;;;;;;81091;275;3027511;-31
2024/01/02 07:25:46;;;;;;;6.10;3.80;;;;;;;;;;81054;283;3032483;-31
2024/01/02 07:28:22;;;;;;;6.10;4.10;;;;;;;;;;81054;275;3032258;-32
2024/01/02 07:30:58;;;;;;;6.10;3.90;;;;;;;;;;81043;271;3029927;-32
2024/01/02 07:33:34;;;;;;;6.30;3.90;;;;;;;;;;81083;275;3028447;-31
2024/01/02 07:36:15;;;;;;;6.70;3.90;;;;;;;;;;81053;271;3030516;-31
2024/01/02 07:38:55;;;;;;;5.80;3.70;;;;;;;;;;81032;275;3032624;-32
2024/01/02 07:41:34;;;;;;;5.90;3.60;;;;;;;;;;81039;271;3029440;-32
2024/01/02 07:44:15;;;;;;;6.00;3.80;;;;;;;;;;81071;275;3027990;-32
2024/01/02 07:46:52;;;;;;;6.40;3.50;;;;;;;;;;81070;275;3032141;-32
2024/01/02 07:49:28;;;;;;;6.80;3.90;;;;;;;;;;81083;270;3031769;-32
2024/01/02 07:52:08;;;;;;;7.70;3.70;;;;;;;;;;81016;279;3028132;-32
2024/01/02 07:54:43;;;;;;;5.90;3.90;;;;;;;;;;81332;275;3027960;-32
2024/01/02 07:57:22;;;;;;;6.40;3.50;;;;;;;;;;81035;275;3031894;-32
2024/01/02 07:59:59;;;;;;;6.30;3.40;;;;;;;;;;81037;283;3031625;-32
2024/01/02 08:02:36;;;;;;;6.50;3.70;;;;;;;;;;82272;279;3029159;-32
2024/01/02 08:05:13;;;;;;;6.70;3.80;;;;;;;;;;81111;275;3027395;-32
2024/01/02 08:07:49;;;;;;;6.60;4.10;;;;;;;;;;82386;275;3030300;-32
2024/01/02 08:10:25;;;;;;;7.60;3.90;;;;;;;;;;82448;279;3031839;-32
2024/01/02 08:13:00;;;;;;;7.10;3.30;;;;;;;;;;81279;279;3028742;-32
2024/01/02 08:15:36;;;;;;;6.90;3.70;;;;;;;;;;81074;279;3027938;-32
2024/01/02 08:18:17;;;;;;;7.00;3.80;;;;;;;;;;81039;271;3032410;-32
2024/01/02 08:20:53;;;;;;;7.00;3.80;;;;;;;;;;81061;279;3031986;-32
2024/01/02 08:23:29;;;;;;;7.30;3.70;;;;;;;;;;81053;283;3030108;-32
2024/01/02 08:26:06;;;;;;;8.00;3.70;;;;;;;;;;81073;275;3027635;-32
2024/01/02 08:28:41;;;;;;;7.30;3.50;;;;;;;;;;82363;279;3030859;-32
2024/01/02 08:31:17;;;;;;;7.90;3.90;;;;;;;;;;82411;278;3031854;-32
2024/01/02 08:33:53;;;;;;;7.90;3.90;;;;;;;;;;81291;279;3034168;-32
2024/01/02 08:36:36;;;;;;;6.70;3.90;;;;;;;;;;81049;276;3027613;-32
2024/01/02 08:39:16;;;;;;;7.10;3.70;;;;;;;;;;81048;275;3031279;-32
2024/01/02 08:41:56;;;;;;;7.00;3.90;;;;;;;;;;81034;275;3031425;-33
2024/01/02 08:44:33;;;;;;;7.80;3.90;;;;;;;;;;81019;267;3028609;-33
2024/01/02 08:47:10;;;;;;;6.00;3.90;;;;;;;;;;81068;283;3027435;-34
2024/01/02 08:49:46;;;;;;;7.80;4.10;;;;;;;;;;81087;270;3030742;-33
2024/01/02 08:52:22;;;;;;;6.60;3.60;;;;;;;;;;81057;283;3031646;-34
2024/01/02 08:55:00;;;;;;;6.60;3.80;;;;;;;;;;81635;275;3028149;-33
2024/01/02 08:57:39;;;;;;;6.20;4.00;;;;;;;;;;81067;275;3027938;-33
2024/01/02 09:00:17;;;;;;;7.10;4.20;;;;;;;;;;81050;271;3030876;-33
2024/01/02 09:02:53;;;;;;;6.90;3.90;;;;;;;;;;81657;279;3031439;-33
2024/01/02 09:05:30;;;;;;;7.00;3.80;;;;;;;;;;81041;275;3028071;-33
2024/01/02 09:08:10;;;;;;;7.30;3.90;;;;;;;;;;81073;275;3027157;-33
2024/01/02 09:10:48;;;;;;;5.90;3.90;;;;;;;;;;81163;271;3030757;-33
2024/01/02 09:13:23;;;;;;;7.30;3.90;;;;;;;;;;81041;271;3031428;-33
2024/01/02 09:16:02;;;;;;;6.00;3.70;;;;;;;;;;81045;271;3028569;-33
2024/01/02 09:18:41;;;;;;;6.50;3.80;;;;;;;;;;81040;283;3028274;-33
2024/01/02 09:21:19;;;;;;;6.80;3.70;;;;;;;;;;81063;283;3030739;-33
2024/01/02 09:23:59;;;;;;;7.60;3.80;;;;;;;;;;80997;283;3032020;-33
2024/01/02 09:26:38;;;;;;;6.10;3.50;;;;;;;;;;81037;275;3027997;-33
2024/01/02 09:29:14;;;;;;;7.00;4.20;;;;;;;;;;81042;275;3028158;-33
2024/01/02 09:31:51;;;;;;;7.20;3.80;;;;;;;;;;81029;275;3030999;-33
2024/01/02 09:34:29;;;;;;;6.50;3.90;;;;;;;;;;80954;283;3032394;-33
2024/01/02 09:37:07;;;;;;;7.30;4.00;;;;;;;;;;81024;283;3137359;-33
2024/01/02 09:39:43;;;;;;;6.90;3.90;;;;;;;;;;81452;270;3027232;-33
2024/01/02 09:42:38;;;;;;;7.90;4.10;;;;;;;;;;81050;275;3031327;-33
2024/01/02 09:45:29;;;;;;;7.30;3.70;;;;;;;;;;81045;270;3032355;-33
2024/01/02 09:48:37;;;;;;;6.70;3.70;;;;;;;;;;81071;283;3028484;-33
2024/01/02 09:51:25;;;;;;;8.90;4.00;;;;;;;;;;81062;283;3027362;-33
2024/01/02 09:54:36;;;;;;;6.50;4.00;;;;;;;;;;82253;278;3031878;-33
2024/01/02 09:57:17;;;;;;;7.10;4.00;;;;;;;;;;82372;282;3037323;-34
2024/01/02 10:00:09;;;;;;;7.20;4.20;;;;;;;;;;81190;274;3028172;-34
2024/01/02 10:03:11;;;;;;;8.60;5.50;;;;;;;;;;81279;275;3027495;-34
2024/01/02 10:06:03;;;;;;;7.90;5.80;;;;;;;;;;81057;283;3031208;-33
2024/01/02 10:09:12;;;;;;;9.40;6.90;;;;;;;;;;81187;275;3038208;-32
2024/01/02 10:11:59;;;;;;;11.60;7.20;;;;;;;;;;81054;283;3028831;-32
2024/01/02 10:14:45;;;;;;;10.40;6.90;;;;;;;;;;81038;275;3027583;-33
2024/01/02 10:17:29;;;;;;;;;;;;;;;;;;81399;275;3030501;-33
2024/01/02 10:20:22;;;;;;;11.50;7.40;;;;;;;;;;81099;283;3031280;-31
2024/01/02 10:23:11;;;;;;;11.10;7.20;;;;;;;;;;82432;276;3028381;-32
2024/01/02 10:25:51;;;;;;;12.10;7.20;;;;;;;;;;81598;275;3027896;-32
2024/01/02 10:28:29;;;;;;;10.90;7.30;;;;;;;;;;82423;278;3031060;-33
2024/01/02 10:31:11;;;;;;;10.80;7.40;;;;;;;;;;82446;278;3032320;-33
2024/01/02 10:33:54;;;;;;;11.40;7.10;;;;;;;;;;82483;279;3029476;-33
2024/01/02 10:36:31;;;;;;;11.80;7.20;;;;;;;;;;82061;283;3027301;-33
2024/01/02 10:39:20;;;;;;;12.00;7.40;;;;;;;;;;81020;283;3030576;-33
2024/01/02 10:42:10;;;;;;;10.00;6.80;;;;;;;;;;81011;275;3031294;-33
2024/01/02 10:44:57;;;;;;;10.70;6.40;;;;;;;;;;81074;275;3029299;-34
2024/01/02 10:47:48;;;;;;;10.90;6.90;;;;;;;;;;81367;283;3027037;-34
2024/01/02 10:50:32;;;;;;;9.10;6.10;;;;;;;;;;81038;283;3031337;-32
2024/01/02 10:53:25;;;;;;;11.40;7.00;;;;;;;;;;82403;270;3032020;-31
2024/01/02 10:56:13;;;;;;;9.40;6.50;;;;;;;;;;82500;278;3029454;-33
2024/01/02 10:59:04;;;;;;;8.80;6.00;;;;;;;;;;82335;270;3027880;-33
2024/01/02 11:01:43;;;;;;;9.70;5.80;;;;;;;;;;81233;270;3031051;-33
2024/01/02 11:04:37;;;;;;;10.30;6.00;;;;;;;;;;81059;283;3032698;-33
2024/01/02 11:07:17;;;;;;;8.70;6.70;;;;;;;;;;81064;283;3028923;-32
2024/01/02 11:09:58;;;;;;;10.00;6.60;;;;;;;;;;82426;278;3034179;-32
2024/01/02 11:12:47;;;;;;;8.60;6.10;;;;;;;;;;82358;275;3030826;-33
2024/01/02 11:15:25;;;;;;;9.00;6.40;;;;;;;;;;81983;270;3031959;-33
2024/01/02 11:18:04;;;;;;;9.40;6.00;;;;;;;;;;81149;270;3028791;-32
2024/01/02 11:20:50;;;;;;;8.10;5.80;;;;;;;;;;81548;275;3027594;-32
2024/01/02 11:23:33;;;;;;;10.00;5.80;;;;;;;;;;81097;283;3031416;-32
2024/01/02 11:26:18;;;;;;;8.60;5.40;;;;;;;;;;82479;270;3031545;-30
2024/01/02 11:28:58;;;;;;;9.70;5.30;;;;;;;;;;82329;278;3028879;-31
2024/01/02 11:31:36;;;;;;;8.80;4.90;;;;;;;;;;82416;270;3027664;-31
2024/01/02 11:34:34;;;;;;;11.30;5.50;;;;;;;;;;81999;275;3031270;-31
2024/01/02 11:37:17;;;;;;;8.50;5.60;;;;;;;;;;81042;283;3031657;-32
2024/01/02 11:40:14;;;;;;;9.80;5.70;;;;;;;;;;81043;275;3028562;-32
2024/01/02 11:43:00;;;;;;;9.90;6.00;;;;;;;;;;81367;275;3027867;-32
2024/01/02 11:45:39;;;;;;;10.40;6.20;;;;;;;;;;81096;283;3031684;-32
2024/01/02 11:48:33;;;;;;;9.60;5.80;;;;;;;;;;81062;283;3031756;-32
2024/01/02 11:51:14;;;;;;;;;;;;;;;;;;81063;270;3034047;-32
2024/01/02 11:54:11;;;;;;;9.70;6.00;;;;;;;;;;81176;275;3027329;-32
2024/01/02 11:56:48;;;;;;;8.20;5.90;;;;;;;;;;81044;275;3030746;-32
2024/01/02 11:59:34;;;;;;;8.80;5.90;;;;;;;;;;81032;275;3031643;-32
2024/01/02 12:02:21;;;;;;;9.70;5.70;;;;;;;;;;81040;279;3028794;-32
2024/01/02 12:05:13;;;;;;;9.60;6.10;;;;;;;;;;81052;275;3028154;-32
2024/01/02 12:07:55;;;;;;;9.60;6.30;;;;;;;;;;81084;275;3030648;-31
2024/01/02 12:10:41;;;;;;;9.30;6.00;;;;;;;;;;81057;275;3031148;-32
2024/01/02 12:13:27;;;;;;;11.60;7.20;;;;;;;;;;81094;275;3028202;-31
2024/01/02 12:16:10;;;;;;;9.60;6.40;;;;;;;;;;82434;279;3027885;-32
2024/01/02 12:18:49;;;;;;;9.10;6.00;;;;;;;;;;81169;271;3030611;-33
2024/01/02 12:21:27;;;;;;;9.50;6.50;;;;;;;;;;81021;283;3031408;-33
2024/01/02 12:24:03;;;;;;;10.00;6.30;;;;;;;;;;81042;267;3029356;-33
2024/01/02 12:26:41;;;;;;;9.50;6.30;;;;;;;;;;81095;275;3027751;-30
2024/01/02 12:29:35;;;;;;;10.60;6.70;;;;;;;;;;81109;283;3031263;-30
2024/01/02 12:32:21;;;;;;;9.20;6.00;;;;;;;;;;81044;270;3038433;-30
2024/01/02 12:35:09;;;;;;;8.20;6.10;;;;;;;;;;82360;275;3027804;-31
2024/01/02 12:38:11;;;;;;;10.80;6.50;;;;;;;;;;82318;278;3027421;-31
2024/01/02 12:40:50;;;;;;;8.20;6.10;;;;;;;;;;81036;271;3030529;-30
2024/01/02 12:43:29;;;;;;;10.30;6.40;;;;;;;;;;81427;279;3031734;-30
2024/01/02 12:46:15;;;;;;;9.00;5.90;;;;;;;;;;81046;272;3028668;-30
2024/01/02 12:49:04;;;;;;;9.20;6.50;;;;;;;;;;81045;275;3027867;-31
2024/01/02 12:51:48;;;;;;;9.10;5.70;;;;;;;;;;81044;283;3030908;-29
2024/01/02 12:54:27;;;;;;;9.00;6.00;;;;;;;;;;81044;283;3031418;-32
2024/01/02 12:57:07;;;;;;;8.60;6.20;;;;;;;;;;81053;271;3028544;-31
2024/01/02 12:59:44;;;;;;;7.70;5.90;;;;;;;;;;81486;275;3028325;-31
2024/01/02 13:02:21;;;;;;;8.90;6.50;;;;;;;;;;81022;278;3031041;-32
2024/01/02 13:04:59;;;;;;;8.60;5.90;;;;;;;;;;81047;275;3031944;-32
2024/01/02 13:07:36;;;;;;;8.30;5.80;;;;;;;;;;81058;283;3028838;-32
2024/01/02 13:10:13;;;;;;;7.00;5.50;;;;;;;;;;81067;271;3027547;-31
2024/01/02 13:12:53;;;;;;;7.80;5.70;;;;;;;;;;82017;283;3030800;-32
2024/01/02 13:15:28;;;;;;;7.70;5.80;;;;;;;;;;82431;278;3031269;-32
2024/01/02 13:18:07;;;;;;;7.90;5.20;;;;;;;;;;82367;283;3029490;-32
2024/01/02 13:20:44;;;;;;;8.30;5.80;;;;;;;;;;82422;282;3027347;-32
2024/01/02 13:23:20;;;;;;;7.60;5.30;;;;;;;;;;81285;275;3037588;-31
2024/01/02 13:25:56;;;;;;;7.30;5.50;;;;;;;;;;81071;275;3032476;-33
2024/01/02 13:28:32;;;;;;;7.70;5.60;;;;;;;;;;81003;271;3028587;-30
2024/01/02 13:31:08;;;;;;;11.00;6.30;;;;;;;;;;81081;283;3027513;-31
2024/01/02 13:33:45;;;;;;;11.30;6.70;;;;;;;;;;81059;283;3032014;-32
2024/01/02 13:36:21;;;;;;;9.80;6.00;;;;;;;;;;81031;275;3031943;-32
2024/01/02 13:38:57;;;;;;;11.30;6.90;;;;;;;;;;81046;275;3028179;-33
2024/01/02 13:41:35;;;;;;;12.10;7.10;;;;;;;;;;81025;282;3027953;-33
2024/01/02 13:44:14;;;;;;;13.50;7.10;;;;;;;;;;81057;283;3036807;-33
2024/01/02 13:46:52;;;;;;;11.90;7.10;;;;;;;;;;81064;267;3031460;-33
2024/01/02 13:49:47;;;;;;;13.10;7.80;;;;;;;;;;81001;283;3029002;-33
2024/01/02 13:52:29;;;;;;;11.30;7.50;;;;;;;;;;81044;270;3027072;-33
2024/01/02 13:55:07;;;;;;;12.10;7.60;;;;;;;;;;81031;280;3031674;-33
2024/01/02 13:57:43;;;;;;;12.70;7.50;;;;;;;;;;82445;279;3031806;-33
2024/01/02 14:00:22;;;;;;;14.30;7.70;;;;;;;;;;81359;283;3028249;-33
2024/01/02 14:02:58;;;;;;;13.80;7.70;;;;;;;;;;82187;270;3027708;-33
2024/01/02 14:05:41;;;;;;;14.90;8.10;;;;;;;;;;81207;274;3030650;-31
2024/01/02 14:08:20;;;;;;;15.60;8.50;;;;;;;;;;81437;274;3031241;-31
2024/01/02 14:11:00;;;;;;;13.60;8.20;;;;;;;;;;81310;274;3028030;-30
2024/01/02 14:13:36;;;;;;;12.60;8.30;;;;;;;;;;81027;275;3029227;-30
2024/01/02 14:16:15;;;;;;;12.00;7.90;;;;;;;;;;81027;270;3031071;-30
2024/01/02 14:18:57;;;;;;;13.10;8.10;;;;;;;;;;81033;275;3031420;-31
2024/01/02 14:21:33;;;;;;;13.20;7.20;;;;;;;;;;81052;283;3029065;-30
2024/01/02 14:24:16;;;;;;;13.60;7.90;;;;;;;;;;81041;275;3027819;-30
2024/01/02 14:27:00;;;;;;;;;;;;;;;;;;81068;283;3030714;-28
2024/01/02 14:29:56;;;;;;;14.10;7.80;;;;;;;;;;81040;271;3032140;-30
2024/01/02 14:32:58;;;;;;;13.60;7.90;;;;;;;;;;81922;275;3029302;-29
2024/01/02 14:35:43;;;;;;;14.10;8.20;;;;;;;;;;81030;275;3034587;-30
2024/01/02 14:38:30;;;;;;;13.00;7.80;;;;;;;;;;81073;283;3031179;-30
2024/01/02 14:41:18;;;;;;;12.60;7.50;;;;;;;;;;82428;279;3031654;-31
2024/01/02 14:44:10;;;;;;;12.90;7.20;;;;;;;;;;81309;274;3029093;-29
2024/01/02 14:47:12;;;;;;;13.30;6.90;;;;;;;;;;81043;283;3028974;-30
2024/01/02 14:49:57;;;;;;;11.50;6.80;;;;;;;;;;82406;276;3031074;-31
2024/01/02 14:53:02;;;;;;;12.00;6.90;;;;;;;;;;82452;272;3031609;-29
2024/01/02 14:55:46;;;;;;;10.40;6.40;;;;;;;;;;82334;276;3027821;-30
2024/01/02 14:58:26;;;;;;;;;;;;;;;;;;82049;276;3027401;-31
2024/01/02 15:01:07;;;;;;;13.40;6.50;;;;;;;;;;81068;272;3032155;-30
2024/01/02 15:03:48;;;;;;;10.30;6.40;;;;;;;;;;81065;275;3032152;-29
2024/01/02 15:06:26;;;;;;;11.60;6.60;;;;;;;;;;81146;279;3033762;-29
2024/01/02 15:09:13;;;;;;;10.60;6.30;;;;;;;;;;81051;275;3027736;-29
2024/01/02 15:11:59;;;;;;;11.40;6.50;;;;;;;;;;81095;271;3030861;-29
2024/01/02 15:14:51;;;;;;;9.90;6.10;;;;;;;;;;81289;283;3031378;-29
2024/01/02 15:17:50;;;;;;;9.90;5.90;;;;;;;;;;81067;271;3028186;-29
2024/01/02 15:20:43;;;;;;;9.60;6.20;;;;;;;;;;81875;275;3027309;-29
2024/01/02 15:23:32;;;;;;;10.80;6.30;;;;;;;;;;82428;275;3030628;-29
2024/01/02 15:26:27;;;;;;;9.10;6.10;;;;;;;;;;81999;283;3031453;-29
2024/01/02 15:29:12;;;;;;;10.30;6.20;;;;;;;;;;82388;270;3029181;-29
2024/01/02 15:32:00;;;;;;;9.00;6.10;;;;;;;;;;82027;270;3027549;-29
2024/01/02 15:34:53;;;;;;;9.20;6.10;;;;;;;;;;81053;271;3030937;-29
2024/01/02 15:37:33;;;;;;;9.10;6.20;;;;;;;;;;82416;278;3038918;-29
2024/01/02 15:40:17;;;;;;;8.70;5.70;;;;;;;;;;81030;271;3028373;-29
2024/01/02 15:42:59;;;;;;;10.50;6.20;;;;;;;;;;81052;276;3027720;-29
2024/01/02 15:45:41;;;;;;;8.30;6.30;;;;;;;;;;81032;283;3031507;-29